sensor_id;sensor_type;location;lat;lon;timestamp;temperature;humidity
52245;DHT22;55759;51.586;-1.758;2024-02-14T00:01:23;11.40;91.70
52245;DHT22;55759;51.586;-1.758;2024-02-14T00:03:49;11.30;91.70
52245;DHT22;55759;51.586;-1.758;2024-02-14T00:06:14;11.40;91.80
52245;DHT22;55759;51.586;-1.758;2024-02-14T00:08:40;11.40;91.90
52245;DHT22;55759;51.586;-1.758;2024-02-14T00:11:05;11.30;91.90
52245;DHT22;55759;51.586;-1.758;2024-02-14T00:13:31;11.30;91.90
52245;DHT22;55759;51.586;-1.758;2024-02-14T00:15:59;11.30;91.90
52245;DHT22;55759;51.586;-1.758;2024-02-14T00:18:25;11.40;91.70
52245;DHT22;55759;51.586;-1.758;2024-02-14T00:20:51;11.30;91.60
52245;DHT22;55759;51.586;-1.758;2024-02-14T00:23:16;11.30;91.70
52245;DHT22;55759;51.586;-1.758;2024-02-14T00:25:42;11.30;91.70
52245;DHT22;55759;51.586;-1.758;2024-02-14T00:28:07;11.30;91.80
52245;DHT22;55759;51.586;-1.758;2024-02-14T00:30:33;11.30;91.80
52245;DHT22;55759;51.586;-1.758;2024-02-14T00:32:59;11.40;91.80
52245;DHT22;55759;51.586;-1.758;2024-02-14T00:35:25;11.40;91.50
52245;DHT22;55759;51.586;-1.758;2024-02-14T00:37:50;11.40;91.40
52245;DHT22;55759;51.586;-1.758;2024-02-14T00:40:17;11.30;91.40
52245;DHT22;55759;51.586;-1.758;2024-02-14T00:42:43;11.30;91.60
52245;DHT22;55759;51.586;-1.758;2024-02-14T00:45:09;11.30;91.60
52245;DHT22;55759;51.586;-1.758;2024-02-14T00:47:35;11.30;91.60
52245;DHT22;55759;51.586;-1.758;2024-02-14T00:50:01;11.30;91.40
52245;DHT22;55759;51.586;-1.758;2024-02-14T00:52:29;11.30;91.40
52245;DHT22;55759;51.586;-1.758;2024-02-14T00:54:55;11.40;91.20
52245;DHT22;55759;51.586;-1.758;2024-02-14T00:57:21;11.30;91.20
52245;DHT22;55759;51.586;-1.758;2024-02-14T00:59:51;11.20;91.20
52245;DHT22;55759;51.586;-1.758;2024-02-14T01:02:17;11.30;91.30
52245;DHT22;55759;51.586;-1.758;2024-02-14T01:04:43;11.30;91.30
52245;DHT22;55759;51.586;-1.758;2024-02-14T01:07:09;11.30;91.20
52245;DHT22;55759;51.586;-1.758;2024-02-14T01:09:34;11.20;91.10
52245;DHT22;55759;51.586;-1.758;2024-02-14T01:12:01;11.30;91.20
52245;DHT22;55759;51.586;-1.758;2024-02-14T01:14:27;11.30;91.20
52245;DHT22;55759;51.586;-1.758;2024-02-14T01:16:52;11.30;91.10
52245;DHT22;55759;51.586;-1.758;2024-02-14T01:19:19;11.30;91.00
52245;DHT22;55759;51.586;-1.758;2024-02-14T01:21:45;11.30;91.10
52245;DHT22;55759;51.586;-1.758;2024-02-14T01:24:14;11.20;91.00
52245;DHT22;55759;51.586;-1.758;2024-02-14T01:26:39;11.30;91.10
52245;DHT22;55759;51.586;-1.758;2024-02-14T01:29:05;11.30;91.20
52245;DHT22;55759;51.586;-1.758;2024-02-14T01:31:31;11.40;91.20
52245;DHT22;55759;51.586;-1.758;2024-02-14T01:33:57;11.40;91.10
52245;DHT22;55759;51.586;-1.758;2024-02-14T01:36:24;11.50;91.10
52245;DHT22;55759;51.586;-1.758;2024-02-14T01:38:50;11.50;91.10
52245;DHT22;55759;51.586;-1.758;2024-02-14T01:41:15;11.50;91.10
52245;DHT22;55759;51.586;-1.758;2024-02-14T01:43:41;11.50;91.00
52245;DHT22;55759;51.586;-1.758;2024-02-14T01:46:06;11.60;91.10
52245;DHT22;55759;51.586;-1.758;2024-02-14T01:48:35;11.60;91.00
52245;DHT22;55759;51.586;-1.758;2024-02-14T01:51:02;11.50;91.00
52245;DHT22;55759;51.586;-1.758;2024-02-14T01:53:28;11.50;91.00
52245;DHT22;55759;51.586;-1.758;2024-02-14T01:55:59;11.50;91.10
52245;DHT22;55759;51.586;-1.758;2024-02-14T01:58:25;11.60;91.20
52245;DHT22;55759;51.586;-1.758;2024-02-14T02:00:51;11.50;91.30
52245;DHT22;55759;51.586;-1.758;2024-02-14T02:03:21;11.60;91.30
52245;DHT22;55759;51.586;-1.758;2024-02-14T02:05:48;11.60;91.30
52245;DHT22;55759;51.586;-1.758;2024-02-14T02:08:14;11.60;91.30
52245;DHT22;55759;51.586;-1.758;2024-02-14T02:10:39;11.50;91.40
52245;DHT22;55759;51.586;-1.758;2024-02-14T02:13:05;11.60;91.40
52245;DHT22;55759;51.586;-1.758;2024-02-14T02:15:31;11.60;91.40
52245;DHT22;55759;51.586;-1.758;2024-02-14T02:17:57;11.70;91.30
52245;DHT22;55759;51.586;-1.758;2024-02-14T02:20:22;11.70;91.30
52245;DHT22;55759;51.586;-1.758;2024-02-14T02:22:48;11.70;91.10
52245;DHT22;55759;51.586;-1.758;2024-02-14T02:25:14;11.80;91.10
52245;DHT22;55759;51.586;-1.758;2024-02-14T02:27:39;11.80;91.00
52245;DHT22;55759;51.586;-1.758;2024-02-14T02:30:06;11.90;91.00
52245;DHT22;55759;51.586;-1.758;2024-02-14T02:32:32;11.90;90.80
52245;DHT22;55759;51.586;-1.758;2024-02-14T02:34:57;12.00;90.80
52245;DHT22;55759;51.586;-1.758;2024-02-14T02:37:24;12.00;90.60
52245;DHT22;55759;51.586;-1.758;2024-02-14T02:39:50;12.00;90.70
52245;DHT22;55759;51.586;-1.758;2024-02-14T02:42:16;12.00;90.50
52245;DHT22;55759;51.586;-1.758;2024-02-14T02:44:46;12.10;90.40
52245;DHT22;55759;51.586;-1.758;2024-02-14T02:47:11;12.10;90.10
52245;DHT22;55759;51.586;-1.758;2024-02-14T02:49:38;12.10;89.90
52245;DHT22;55759;51.586;-1.758;2024-02-14T02:52:03;12.00;89.90
52245;DHT22;55759;51.586;-1.758;2024-02-14T02:54:29;12.10;90.00
52245;DHT22;55759;51.586;-1.758;2024-02-14T02:56:54;12.00;90.10
52245;DHT22;55759;51.586;-1.758;2024-02-14T02:59:20;12.10;90.20
52245;DHT22;55759;51.586;-1.758;2024-02-14T03:01:47;12.10;90.10
52245;DHT22;55759;51.586;-1.758;2024-02-14T03:04:14;12.10;90.20
52245;DHT22;55759;51.586;-1.758;2024-02-14T03:06:40;12.10;90.00
52245;DHT22;55759;51.586;-1.758;2024-02-14T03:09:06;12.20;89.90
52245;DHT22;55759;51.586;-1.758;2024-02-14T03:11:32;12.10;89.90
52245;DHT22;55759;51.586;-1.758;2024-02-14T03:13:58;12.20;89.80
52245;DHT22;55759;51.586;-1.758;2024-02-14T03:16:24;12.20;89.90
52245;DHT22;55759;51.586;-1.758;2024-02-14T03:18:50;12.20;89.90
52245;DHT22;55759;51.586;-1.758;2024-02-14T03:21:15;12.20;89.70
52245;DHT22;55759;51.586;-1.758;2024-02-14T03:23:41;12.20;89.60
52245;DHT22;55759;51.586;-1.758;2024-02-14T03:26:06;12.20;89.70
52245;DHT22;55759;51.586;-1.758;2024-02-14T03:28:34;12.10;89.60
52245;DHT22;55759;51.586;-1.758;2024-02-14T03:31:02;12.00;89.80
52245;DHT22;55759;51.586;-1.758;2024-02-14T03:33:27;11.90;89.90
52245;DHT22;55759;51.586;-1.758;2024-02-14T03:35:54;11.90;90.10
52245;DHT22;55759;51.586;-1.758;2024-02-14T03:38:26;11.90;90.30
52245;DHT22;55759;51.586;-1.758;2024-02-14T03:40:52;11.90;90.40
52245;DHT22;55759;51.586;-1.758;2024-02-14T03:43:18;12.00;90.30
52245;DHT22;55759;51.586;-1.758;2024-02-14T03:45:43;12.10;90.20
52245;DHT22;55759;51.586;-1.758;2024-02-14T03:48:09;12.10;90.20
52245;DHT22;55759;51.586;-1.758;2024-02-14T03:50:38;12.10;90.00
52245;DHT22;55759;51.586;-1.758;2024-02-14T03:53:03;12.10;89.80
52245;DHT22;55759;51.586;-1.758;2024-02-14T03:55:29;12.00;89.70
52245;DHT22;55759;51.586;-1.758;2024-02-14T03:57:55;12.00;89.90
52245;DHT22;55759;51.586;-1.758;2024-02-14T04:00:21;12.00;89.90
52245;DHT22;55759;51.586;-1.758;2024-02-14T04:02:47;11.90;89.90
52245;DHT22;55759;51.586;-1.758;2024-02-14T04:05:14;11.90;89.90
52245;DHT22;55759;51.586;-1.758;2024-02-14T04:07:40;11.80;90.00
52245;DHT22;55759;51.586;-1.758;2024-02-14T04:10:09;11.80;90.10
52245;DHT22;55759;51.586;-1.758;2024-02-14T04:12:35;11.80;90.20
52245;DHT22;55759;51.586;-1.758;2024-02-14T04:15:00;11.90;90.30
52245;DHT22;55759;51.586;-1.758;2024-02-14T04:17:26;11.90;90.40
52245;DHT22;55759;51.586;-1.758;2024-02-14T04:19:52;12.00;90.40
52245;DHT22;55759;51.586;-1.758;2024-02-14T04:22:17;12.00;90.30
52245;DHT22;55759;51.586;-1.758;2024-02-14T04:24:43;12.10;90.20
52245;DHT22;55759;51.586;-1.758;2024-02-14T04:27:08;12.10;90.10
52245;DHT22;55759;51.586;-1.758;2024-02-14T04:29:34;12.10;90.10
52245;DHT22;55759;51.586;-1.758;2024-02-14T04:32:00;12.10;90.10
52245;DHT22;55759;51.586;-1.758;2024-02-14T04:34:26;12.10;90.10
52245;DHT22;55759;51.586;-1.758;2024-02-14T04:36:52;12.10;90.10
52245;DHT22;55759;51.586;-1.758;2024-02-14T04:39:17;12.10;90.00
52245;DHT22;55759;51.586;-1.758;2024-02-14T04:41:43;12.10;90.10
52245;DHT22;55759;51.586;-1.758;2024-02-14T04:44:08;12.10;90.30
52245;DHT22;55759;51.586;-1.758;2024-02-14T04:46:34;12.00;90.40
52245;DHT22;55759;51.586;-1.758;2024-02-14T04:49:01;12.00;90.50
52245;DHT22;55759;51.586;-1.758;2024-02-14T04:51:29;12.00;90.60
52245;DHT22;55759;51.586;-1.758;2024-02-14T04:53:54;12.00;90.60
52245;DHT22;55759;51.586;-1.758;2024-02-14T04:56:24;12.10;90.60
52245;DHT22;55759;51.586;-1.758;2024-02-14T04:58:49;12.00;90.60
52245;DHT22;55759;51.586;-1.758;2024-02-14T05:01:15;12.00;90.50
52245;DHT22;55759;51.586;-1.758;2024-02-14T05:03:41;12.00;90.60
52245;DHT22;55759;51.586;-1.758;2024-02-14T05:06:06;12.00;90.70
52245;DHT22;55759;51.586;-1.758;2024-02-14T05:08:32;12.00;90.70
52245;DHT22;55759;51.586;-1.758;2024-02-14T05:10:57;12.00;90.70
52245;DHT22;55759;51.586;-1.758;2024-02-14T05:13:23;11.90;90.70
52245;DHT22;55759;51.586;-1.758;2024-02-14T05:15:49;12.00;90.90
52245;DHT22;55759;51.586;-1.758;2024-02-14T05:18:16;12.00;91.00
52245;DHT22;55759;51.586;-1.758;2024-02-14T05:20:42;11.90;91.00
52245;DHT22;55759;51.586;-1.758;2024-02-14T05:23:07;11.90;91.10
52245;DHT22;55759;51.586;-1.758;2024-02-14T05:25:34;11.90;91.20
52245;DHT22;55759;51.586;-1.758;2024-02-14T05:28:00;11.80;91.40
52245;DHT22;55759;51.586;-1.758;2024-02-14T05:30:26;11.80;91.60
52245;DHT22;55759;51.586;-1.758;2024-02-14T05:32:52;11.80;91.60
52245;DHT22;55759;51.586;-1.758;2024-02-14T05:35:18;11.90;91.70
52245;DHT22;55759;51.586;-1.758;2024-02-14T05:37:43;11.90;91.70
52245;DHT22;55759;51.586;-1.758;2024-02-14T05:40:09;11.90;91.70
52245;DHT22;55759;51.586;-1.758;2024-02-14T05:42:34;12.00;91.70
52245;DHT22;55759;51.586;-1.758;2024-02-14T05:45:00;12.00;91.60
52245;DHT22;55759;51.586;-1.758;2024-02-14T05:47:27;12.00;91.50
52245;DHT22;55759;51.586;-1.758;2024-02-14T05:49:52;11.90;91.50
52245;DHT22;55759;51.586;-1.758;2024-02-14T05:52:18;11.90;91.60
52245;DHT22;55759;51.586;-1.758;2024-02-14T05:54:44;11.90;91.70
52245;DHT22;55759;51.586;-1.758;2024-02-14T05:57:09;11.90;91.70
52245;DHT22;55759;51.586;-1.758;2024-02-14T05:59:35;11.80;91.70
52245;DHT22;55759;51.586;-1.758;2024-02-14T06:02:00;11.80;91.80
52245;DHT22;55759;51.586;-1.758;2024-02-14T06:04:28;11.80;91.90
52245;DHT22;55759;51.586;-1.758;2024-02-14T06:06:53;11.80;92.00
52245;DHT22;55759;51.586;-1.758;2024-02-14T06:09:19;11.80;92.10
52245;DHT22;55759;51.586;-1.758;2024-02-14T06:11:44;11.80;92.20
52245;DHT22;55759;51.586;-1.758;2024-02-14T06:14:10;11.80;92.30
52245;DHT22;55759;51.586;-1.758;2024-02-14T06:16:36;11.80;92.30
52245;DHT22;55759;51.586;-1.758;2024-02-14T06:19:01;11.80;92.40
52245;DHT22;55759;51.586;-1.758;2024-02-14T06:21:30;11.90;92.40
52245;DHT22;55759;51.586;-1.758;2024-02-14T06:23:55;11.90;92.40
52245;DHT22;55759;51.586;-1.758;2024-02-14T06:26:21;11.90;92.40
52245;DHT22;55759;51.586;-1.758;2024-02-14T06:28:46;11.80;92.40
52245;DHT22;55759;51.586;-1.758;2024-02-14T06:31:12;11.80;92.50
52245;DHT22;55759;51.586;-1.758;2024-02-14T06:33:38;11.80;92.50
52245;DHT22;55759;51.586;-1.758;2024-02-14T06:36:03;11.80;92.60
52245;DHT22;55759;51.586;-1.758;2024-02-14T06:38:30;11.80;92.60
52245;DHT22;55759;51.586;-1.758;2024-02-14T06:40:56;11.80;92.60
52245;DHT22;55759;51.586;-1.758;2024-02-14T06:43:22;11.80;92.70
52245;DHT22;55759;51.586;-1.758;2024-02-14T06:45:47;11.80;92.60
52245;DHT22;55759;51.586;-1.758;2024-02-14T06:48:13;11.80;92.60
52245;DHT22;55759;51.586;-1.758;2024-02-14T06:50:38;11.90;92.60
52245;DHT22;55759;51.586;-1.758;2024-02-14T06:53:04;11.80;92.60
52245;DHT22;55759;51.586;-1.758;2024-02-14T06:55:30;11.90;92.70
52245;DHT22;55759;51.586;-1.758;2024-02-14T06:57:57;11.80;92.60
52245;DHT22;55759;51.586;-1.758;2024-02-14T07:00:23;11.90;92.70
52245;DHT22;55759;51.586;-1.758;2024-02-14T07:02:48;11.90;92.70
52245;DHT22;55759;51.586;-1.758;2024-02-14T07:05:14;11.90;92.70
52245;DHT22;55759;51.586;-1.758;2024-02-14T07:07:43;11.90;92.70
52245;DHT22;55759;51.586;-1.758;2024-02-14T07:10:08;11.90;92.70
52245;DHT22;55759;51.586;-1.758;2024-02-14T07:12:34;12.00;92.70
52245;DHT22;55759;51.586;-1.758;2024-02-14T07:15:01;12.10;92.60
52245;DHT22;55759;51.586;-1.758;2024-02-14T07:17:29;12.10;92.60
52245;DHT22;55759;51.586;-1.758;2024-02-14T07:19:55;12.10;92.60
52245;DHT22;55759;51.586;-1.758;2024-02-14T07:22:20;12.10;92.50
52245;DHT22;55759;51.586;-1.758;2024-02-14T07:24:46;12.10;92.50
52245;DHT22;55759;51.586;-1.758;2024-02-14T07:27:12;12.10;92.50
52245;DHT22;55759;51.586;-1.758;2024-02-14T07:29:38;12.10;92.50
52245;DHT22;55759;51.586;-1.758;2024-02-14T07:32:03;12.10;92.50
52245;DHT22;55759;51.586;-1.758;2024-02-14T07:34:29;12.20;92.40
52245;DHT22;55759;51.586;-1.758;2024-02-14T07:36:55;12.20;92.40
52245;DHT22;55759;51.586;-1.758;2024-02-14T07:39:20;12.20;92.30
52245;DHT22;55759;51.586;-1.758;2024-02-14T07:41:46;12.20;92.30
52245;DHT22;55759;51.586;-1.758;2024-02-14T07:44:11;12.20;92.20
52245;DHT22;55759;51.586;-1.758;2024-02-14T07:46:37;12.20;92.10
52245;DHT22;55759;51.586;-1.758;2024-02-14T07:49:03;12.30;92.10
52245;DHT22;55759;51.586;-1.758;2024-02-14T07:51:30;12.30;92.10
52245;DHT22;55759;51.586;-1.758;2024-02-14T07:54:02;12.30;92.10
52245;DHT22;55759;51.586;-1.758;2024-02-14T07:56:28;12.40;92.10
52245;DHT22;55759;51.586;-1.758;2024-02-14T07:58:53;12.40;92.10
52245;DHT22;55759;51.586;-1.758;2024-02-14T08:01:19;12.40;92.00
52245;DHT22;55759;51.586;-1.758;2024-02-14T08:03:45;12.40;92.00
52245;DHT22;55759;51.586;-1.758;2024-02-14T08:06:11;12.40;92.00
52245;DHT22;55759;51.586;-1.758;2024-02-14T08:08:37;12.50;91.90
52245;DHT22;55759;51.586;-1.758;2024-02-14T08:11:03;12.50;91.70
52245;DHT22;55759;51.586;-1.758;2024-02-14T08:13:28;12.60;91.60
52245;DHT22;55759;51.586;-1.758;2024-02-14T08:15:54;12.60;91.50
52245;DHT22;55759;51.586;-1.758;2024-02-14T08:18:20;12.60;91.30
52245;DHT22;55759;51.586;-1.758;2024-02-14T08:20:45;12.60;91.40
52245;DHT22;55759;51.586;-1.758;2024-02-14T08:23:11;12.60;91.40
52245;DHT22;55759;51.586;-1.758;2024-02-14T08:25:36;12.60;91.40
52245;DHT22;55759;51.586;-1.758;2024-02-14T08:28:02;12.60;91.50
52245;DHT22;55759;51.586;-1.758;2024-02-14T08:30:28;12.60;91.50
52245;DHT22;55759;51.586;-1.758;2024-02-14T08:32:53;12.50;91.60
52245;DHT22;55759;51.586;-1.758;2024-02-14T08:35:20;12.50;91.60
52245;DHT22;55759;51.586;-1.758;2024-02-14T08:37:46;12.60;91.60
52245;DHT22;55759;51.586;-1.758;2024-02-14T08:40:15;12.60;91.70
52245;DHT22;55759;51.586;-1.758;2024-02-14T08:42:40;12.60;91.70
52245;DHT22;55759;51.586;-1.758;2024-02-14T08:45:06;12.60;91.70
52245;DHT22;55759;51.586;-1.758;2024-02-14T08:47:32;12.60;91.70
52245;DHT22;55759;51.586;-1.758;2024-02-14T08:49:57;12.60;91.60
52245;DHT22;55759;51.586;-1.758;2024-02-14T08:52:23;12.60;91.60
52245;DHT22;55759;51.586;-1.758;2024-02-14T08:54:48;12.60;91.60
52245;DHT22;55759;51.586;-1.758;2024-02-14T08:57:14;12.60;91.60
52245;DHT22;55759;51.586;-1.758;2024-02-14T08:59:40;12.60;91.60
52245;DHT22;55759;51.586;-1.758;2024-02-14T09:02:08;12.60;91.60
52245;DHT22;55759;51.586;-1.758;2024-02-14T09:04:37;12.60;91.60
52245;DHT22;55759;51.586;-1.758;2024-02-14T09:07:03;12.60;91.70
52245;DHT22;55759;51.586;-1.758;2024-02-14T09:09:29;12.70;91.50
52245;DHT22;55759;51.586;-1.758;2024-02-14T09:11:54;12.70;91.40
52245;DHT22;55759;51.586;-1.758;2024-02-14T09:14:20;12.70;91.30
52245;DHT22;55759;51.586;-1.758;2024-02-14T09:16:46;12.70;91.30
52245;DHT22;55759;51.586;-1.758;2024-02-14T09:19:11;12.70;91.30
52245;DHT22;55759;51.586;-1.758;2024-02-14T09:21:37;12.70;91.30
52245;DHT22;55759;51.586;-1.758;2024-02-14T09:24:03;12.70;91.30
52245;DHT22;55759;51.586;-1.758;2024-02-14T09:26:30;12.80;91.30
52245;DHT22;55759;51.586;-1.758;2024-02-14T09:28:55;12.80;91.40
52245;DHT22;55759;51.586;-1.758;2024-02-14T09:31:21;12.80;91.40
52245;DHT22;55759;51.586;-1.758;2024-02-14T09:33:47;12.90;91.20
52245;DHT22;55759;51.586;-1.758;2024-02-14T09:36:13;12.90;91.20
52245;DHT22;55759;51.586;-1.758;2024-02-14T09:38:39;13.00;91.00
52245;DHT22;55759;51.586;-1.758;2024-02-14T09:41:10;13.00;90.90
52245;DHT22;55759;51.586;-1.758;2024-02-14T09:43:43;13.00;90.80
52245;DHT22;55759;51.586;-1.758;2024-02-14T09:46:09;13.00;90.80
52245;DHT22;55759;51.586;-1.758;2024-02-14T09:48:36;13.10;90.70
52245;DHT22;55759;51.586;-1.758;2024-02-14T09:51:03;13.10;90.70
52245;DHT22;55759;51.586;-1.758;2024-02-14T09:53:29;13.10;90.50
52245;DHT22;55759;51.586;-1.758;2024-02-14T09:55:55;13.20;90.20
52245;DHT22;55759;51.586;-1.758;2024-02-14T09:58:21;13.30;90.10
52245;DHT22;55759;51.586;-1.758;2024-02-14T10:00:47;13.30;90.00
52245;DHT22;55759;51.586;-1.758;2024-02-14T10:03:13;13.30;90.00
52245;DHT22;55759;51.586;-1.758;2024-02-14T10:05:39;13.40;90.00
52245;DHT22;55759;51.586;-1.758;2024-02-14T10:08:04;13.40;89.60
52245;DHT22;55759;51.586;-1.758;2024-02-14T10:10:33;13.50;89.60
52245;DHT22;55759;51.586;-1.758;2024-02-14T10:13:05;13.60;89.50
52245;DHT22;55759;51.586;-1.758;2024-02-14T10:15:33;13.70;89.40
52245;DHT22;55759;51.586;-1.758;2024-02-14T10:17:59;13.80;89.20
52245;DHT22;55759;51.586;-1.758;2024-02-14T10:20:26;13.90;89.00
52245;DHT22;55759;51.586;-1.758;2024-02-14T10:22:52;13.90;88.60
52245;DHT22;55759;51.586;-1.758;2024-02-14T10:25:25;14.10;88.40
52245;DHT22;55759;51.586;-1.758;2024-02-14T10:27:51;14.10;87.90
52245;DHT22;55759;51.586;-1.758;2024-02-14T10:30:16;14.20;87.50
52245;DHT22;55759;51.586;-1.758;2024-02-14T10:32:42;14.20;87.30
52245;DHT22;55759;51.586;-1.758;2024-02-14T10:35:13;14.20;87.30
52245;DHT22;55759;51.586;-1.758;2024-02-14T10:37:40;14.20;87.30
52245;DHT22;55759;51.586;-1.758;2024-02-14T10:40:06;14.30;86.90
52245;DHT22;55759;51.586;-1.758;2024-02-14T10:42:32;14.40;86.60
52245;DHT22;55759;51.586;-1.758;2024-02-14T10:44:58;14.50;86.40
52245;DHT22;55759;51.586;-1.758;2024-02-14T10:47:25;14.70;86.00
52245;DHT22;55759;51.586;-1.758;2024-02-14T10:49:53;14.80;85.70
52245;DHT22;55759;51.586;-1.758;2024-02-14T10:52:20;14.80;85.20
52245;DHT22;55759;51.586;-1.758;2024-02-14T10:54:50;14.80;85.30
52245;DHT22;55759;51.586;-1.758;2024-02-14T10:57:17;14.80;85.40
52245;DHT22;55759;51.586;-1.758;2024-02-14T10:59:45;14.80;85.80
52245;DHT22;55759;51.586;-1.758;2024-02-14T11:02:12;14.80;85.70
52245;DHT22;55759;51.586;-1.758;2024-02-14T11:04:37;14.70;86.10
52245;DHT22;55759;51.586;-1.758;2024-02-14T11:07:08;14.80;86.30
52245;DHT22;55759;51.586;-1.758;2024-02-14T11:09:37;14.80;86.70
52245;DHT22;55759;51.586;-1.758;2024-02-14T11:12:04;14.80;86.70
52245;DHT22;55759;51.586;-1.758;2024-02-14T11:14:32;14.90;86.40
52245;DHT22;55759;51.586;-1.758;2024-02-14T11:17:02;15.00;85.90
52245;DHT22;55759;51.586;-1.758;2024-02-14T11:19:31;15.00;85.50
52245;DHT22;55759;51.586;-1.758;2024-02-14T11:22:11;14.90;85.60
52245;DHT22;55759;51.586;-1.758;2024-02-14T11:24:38;14.90;85.70
52245;DHT22;55759;51.586;-1.758;2024-02-14T11:27:09;14.90;85.80
52245;DHT22;55759;51.586;-1.758;2024-02-14T11:29:34;14.80;86.10
52245;DHT22;55759;51.586;-1.758;2024-02-14T11:32:01;14.70;85.90
52245;DHT22;55759;51.586;-1.758;2024-02-14T11:34:28;14.70;86.40
52245;DHT22;55759;51.586;-1.758;2024-02-14T11:36:53;14.70;86.50
52245;DHT22;55759;51.586;-1.758;2024-02-14T11:39:25;14.80;86.40
52245;DHT22;55759;51.586;-1.758;2024-02-14T11:41:50;14.80;86.40
52245;DHT22;55759;51.586;-1.758;2024-02-14T11:44:16;14.90;86.00
52245;DHT22;55759;51.586;-1.758;2024-02-14T11:46:42;15.00;85.60
52245;DHT22;55759;51.586;-1.758;2024-02-14T11:49:07;15.00;85.70
52245;DHT22;55759;51.586;-1.758;2024-02-14T11:51:34;14.90;85.70
52245;DHT22;55759;51.586;-1.758;2024-02-14T11:54:05;14.80;85.90
52245;DHT22;55759;51.586;-1.758;2024-02-14T11:56:32;14.70;86.30
52245;DHT22;55759;51.586;-1.758;2024-02-14T11:59:01;14.70;86.30
52245;DHT22;55759;51.586;-1.758;2024-02-14T12:01:30;14.70;86.60
52245;DHT22;55759;51.586;-1.758;2024-02-14T12:04:04;14.80;86.20
52245;DHT22;55759;51.586;-1.758;2024-02-14T12:06:33;14.80;85.90
52245;DHT22;55759;51.586;-1.758;2024-02-14T12:09:01;14.80;86.00
52245;DHT22;55759;51.586;-1.758;2024-02-14T12:11:33;14.80;85.90
52245;DHT22;55759;51.586;-1.758;2024-02-14T12:14:02;14.90;85.80
52245;DHT22;55759;51.586;-1.758;2024-02-14T12:16:30;14.90;86.00
52245;DHT22;55759;51.586;-1.758;2024-02-14T12:19:04;15.00;85.60
52245;DHT22;55759;51.586;-1.758;2024-02-14T12:21:38;15.10;85.10
52245;DHT22;55759;51.586;-1.758;2024-02-14T12:24:04;15.10;84.90
52245;DHT22;55759;51.586;-1.758;2024-02-14T12:26:30;15.10;84.60
52245;DHT22;55759;51.586;-1.758;2024-02-14T12:28:56;15.10;84.50
52245;DHT22;55759;51.586;-1.758;2024-02-14T12:31:22;15.10;84.50
52245;DHT22;55759;51.586;-1.758;2024-02-14T12:33:48;15.00;84.80
52245;DHT22;55759;51.586;-1.758;2024-02-14T12:36:14;15.00;84.90
52245;DHT22;55759;51.586;-1.758;2024-02-14T12:38:40;15.00;85.30
52245;DHT22;55759;51.586;-1.758;2024-02-14T12:41:06;15.00;85.10
52245;DHT22;55759;51.586;-1.758;2024-02-14T12:43:31;15.00;85.00
52245;DHT22;55759;51.586;-1.758;2024-02-14T12:45:57;15.00;84.90
52245;DHT22;55759;51.586;-1.758;2024-02-14T12:48:24;15.00;85.00
52245;DHT22;55759;51.586;-1.758;2024-02-14T12:50:52;15.00;85.30
52245;DHT22;55759;51.586;-1.758;2024-02-14T12:53:17;15.00;85.10
52245;DHT22;55759;51.586;-1.758;2024-02-14T12:55:43;15.00;85.10
52245;DHT22;55759;51.586;-1.758;2024-02-14T12:58:08;15.00;85.00
52245;DHT22;55759;51.586;-1.758;2024-02-14T13:00:36;15.00;84.90
52245;DHT22;55759;51.586;-1.758;2024-02-14T13:03:01;15.10;84.50
52245;DHT22;55759;51.586;-1.758;2024-02-14T13:05:28;15.10;84.50
52245;DHT22;55759;51.586;-1.758;2024-02-14T13:07:53;15.00;84.60
52245;DHT22;55759;51.586;-1.758;2024-02-14T13:10:19;15.00;85.20
52245;DHT22;55759;51.586;-1.758;2024-02-14T13:12:44;15.10;85.40
52245;DHT22;55759;51.586;-1.758;2024-02-14T13:15:10;15.10;85.80
52245;DHT22;55759;51.586;-1.758;2024-02-14T13:17:36;15.10;85.00
52245;DHT22;55759;51.586;-1.758;2024-02-14T13:20:02;15.10;84.90
52245;DHT22;55759;51.586;-1.758;2024-02-14T13:22:28;15.20;84.90
52245;DHT22;55759;51.586;-1.758;2024-02-14T13:24:53;15.20;84.40
52245;DHT22;55759;51.586;-1.758;2024-02-14T13:27:19;15.30;84.70
52245;DHT22;55759;51.586;-1.758;2024-02-14T13:29:48;15.20;84.70
52245;DHT22;55759;51.586;-1.758;2024-02-14T13:32:15;15.10;84.50
52245;DHT22;55759;51.586;-1.758;2024-02-14T13:34:40;15.10;84.50
52245;DHT22;55759;51.586;-1.758;2024-02-14T13:37:06;15.00;85.00
52245;DHT22;55759;51.586;-1.758;2024-02-14T13:39:31;15.00;84.70
52245;DHT22;55759;51.586;-1.758;2024-02-14T13:41:57;15.00;84.50
52245;DHT22;55759;51.586;-1.758;2024-02-14T13:44:25;14.90;84.80
52245;DHT22;55759;51.586;-1.758;2024-02-14T13:46:50;14.90;85.40
52245;DHT22;55759;51.586;-1.758;2024-02-14T13:49:18;14.90;85.80
52245;DHT22;55759;51.586;-1.758;2024-02-14T13:51:47;14.90;85.60
52245;DHT22;55759;51.586;-1.758;2024-02-14T13:54:13;14.90;85.80
52245;DHT22;55759;51.586;-1.758;2024-02-14T13:56:39;15.00;85.60
52245;DHT22;55759;51.586;-1.758;2024-02-14T13:59:04;15.00;85.90
52245;DHT22;55759;51.586;-1.758;2024-02-14T14:01:30;15.10;85.00
52245;DHT22;55759;51.586;-1.758;2024-02-14T14:03:55;15.20;85.30
52245;DHT22;55759;51.586;-1.758;2024-02-14T14:06:23;15.30;84.90
52245;DHT22;55759;51.586;-1.758;2024-02-14T14:08:49;15.40;84.80
52245;DHT22;55759;51.586;-1.758;2024-02-14T14:11:15;15.50;84.20
52245;DHT22;55759;51.586;-1.758;2024-02-14T14:13:41;15.60;83.90
52245;DHT22;55759;51.586;-1.758;2024-02-14T14:16:06;15.60;83.20
52245;DHT22;55759;51.586;-1.758;2024-02-14T14:18:32;15.60;83.70
52245;DHT22;55759;51.586;-1.758;2024-02-14T14:20:58;15.80;83.90
52245;DHT22;55759;51.586;-1.758;2024-02-14T14:23:23;15.90;82.70
52245;DHT22;55759;51.586;-1.758;2024-02-14T14:25:49;16.00;82.60
52245;DHT22;55759;51.586;-1.758;2024-02-14T14:28:14;16.00;82.30
52245;DHT22;55759;51.586;-1.758;2024-02-14T14:30:40;16.00;82.10
52245;DHT22;55759;51.586;-1.758;2024-02-14T14:33:06;15.90;82.20
52245;DHT22;55759;51.586;-1.758;2024-02-14T14:35:33;15.80;82.20
52245;DHT22;55759;51.586;-1.758;2024-02-14T14:38:01;15.70;82.40
52245;DHT22;55759;51.586;-1.758;2024-02-14T14:40:28;15.80;82.50
52245;DHT22;55759;51.586;-1.758;2024-02-14T14:42:53;15.90;82.20
52245;DHT22;55759;51.586;-1.758;2024-02-14T14:45:19;15.80;81.80
52245;DHT22;55759;51.586;-1.758;2024-02-14T14:47:45;15.70;82.00
52245;DHT22;55759;51.586;-1.758;2024-02-14T14:50:10;15.60;82.20
52245;DHT22;55759;51.586;-1.758;2024-02-14T14:52:38;15.50;82.50
52245;DHT22;55759;51.586;-1.758;2024-02-14T14:55:04;15.50;82.80
52245;DHT22;55759;51.586;-1.758;2024-02-14T14:57:30;15.50;82.90
52245;DHT22;55759;51.586;-1.758;2024-02-14T14:59:55;15.50;82.60
52245;DHT22;55759;51.586;-1.758;2024-02-14T15:02:21;15.40;82.80
52245;DHT22;55759;51.586;-1.758;2024-02-14T15:04:50;15.50;83.20
52245;DHT22;55759;51.586;-1.758;2024-02-14T15:07:16;15.50;83.00
52245;DHT22;55759;51.586;-1.758;2024-02-14T15:09:45;15.50;82.90